Aurora, Nebraska
Current Conditions -  °F | °C
As of 4:15 PM on Friday 24 Oct 2014 (Local Time) from KAUH Reporting Station
Clear Clear  
Wind Chill: 77°   Ceiling: Unl
Heat Index: 78°   Visibility: 10mi
Dew Point: 46°   Wind: 7mph
Humidity: 33%   Direction: 330°NNW
Pressure: 29.93"   Gusts: NA
Location:  40.87°N, 98°W
Report Text: KAUH 242115Z AUTO 33006KT 10SM CLR 25/08 A2993 RMK AO2 T02500077
Loading
Personal Weather Stations






























Interactive Weather Map
Tropical Storm Tracking
New forecast layout! Learn more

10-Day Weather Forecast

Advertisements
Track Severe Weather on mobile